Portada
METAR-TAF:

METAR-TAF

Aeropuertos :

Sirri, Irán

latitud: 25-54-34N, longitud: 054-32-22E, altitud: 13 m

Observación

El informe se hizo hace 10 horas y 58 minutos, a las 15:00 UTC
Viento calma
Temperatura 23°C
Humedad 65%
Presión 1017 hPa
Visibilidad 10 km o más
sin nubes por debajo de 1500 m y sin presencia de cumulonimbus.

METAR: OIBS 121500Z 00000KT CAVOK 23/16 Q1017

Hora: 05:28 (01:58 UTC)


TAF: falta

Observaciones y pronósticos meteorológicos de más de 4000 aeropuertos (mensajes METAR y TAF).

Los puntos amarillos y rojos representan las estaciones disponibles.

Ponga el ratón en el punto deseado para ver el nombre de la estación.

Haga clic para ver las observaciones y los pronósticos meteorológicos.

Para cambiar el mapa : haga clic en los botones verdes con una cruz de color negro para hacer un zoom, en el botón verde con un guión para alejar o en las flechas verdes para mapas adyacentes.


METAR-TAF: